This is the latest recevied weather packets stored in our database for station/object KLEMETTI. If no packets are shown the sender has not sent any weather packets the latest 10 day(s).
| Time | Temp. | Humidity | Pressure | Rain* | Wind** | Luminosity | Snow |
|---|---|---|---|---|---|---|---|
| 1777529217 | 9.44° C | 71% | 1020.4 hPa | 0 mm | - | - | - |
| 1777528017 | 9.44° C | 72% | 1020.1 hPa | 0 mm | - | - | - |
| 1777526817 | 8.89° C | 75% | 1019.9 hPa | 0 mm | - | - | - |
| 1777525617 | 7.78° C | 81% | 1019.8 hPa | 0 mm | - | - | - |
| 1777524417 | 7.22° C | 83% | 1019.8 hPa | 0 mm | - | - | - |
| 1777523217 | 6.67° C | 86% | 1020 hPa | 0 mm | - | - | - |
| 1777522017 | 6.67° C | 87% | 1019.9 hPa | 0 mm | - | - | - |
| 1777520817 | 6.11° C | 88% | 1019.8 hPa | 0 mm | - | - | - |
| 1777519617 | 6.11° C | 88% | 1019.7 hPa | 0 mm | - | - | - |
| 1777518417 | 6.11° C | 88% | 1019.8 hPa | 0 mm | - | - | - |
| 1777517217 | 6.11° C | 89% | 1020 hPa | 0 mm | - | - | - |
| 1777516017 | 6.11° C | 88% | 1020 hPa | 0 mm | - | - | - |
| 1777514817 | 6.67° C | 88% | 1020 hPa | 0 mm | - | - | - |
| 1777513617 | 6.67° C | 88% | 1020 hPa | 0 mm | - | - | - |
| 1777512417 | 6.11° C | 89% | 1020.1 hPa | 0 mm | - | - | - |
| 1777511217 | 6.11° C | 89% | 1020.2 hPa | 0 mm | - | - | - |
| 1777510017 | 6.11° C | 89% | 1020.3 hPa | 0 mm | - | - | - |
| 1777508816 | 6.11° C | 90% | 1020.3 hPa | 0 mm | - | - | - |
| 1777507616 | 5.56° C | 91% | 1020.3 hPa | 0 mm | - | - | - |
| 1777506417 | 5.56° C | 92% | 1020.5 hPa | 0 mm | - | - | - |
| 1777505216 | 5.56° C | 93% | 1020.8 hPa | 0 mm | - | - | - |
| 1777504016 | 5° C | 93% | 1020.9 hPa | 0 mm | - | - | - |
| 1777502816 | 5° C | 93% | 1021 hPa | 0 mm | - | - | - |
| 1777501616 | 5° C | 94% | 1021.1 hPa | 0 mm | - | - | - |
| 1777500416 | 4.44° C | 94% | 1021.1 hPa | 0 mm | - | - | - |
* Rain latest hour (hover to see other rain measurements)
** Current wind speed in m/s (hover to see current wind gust speed)